sensor_id;sensor_type;location;lat;lon;timestamp;P1;durP1;ratioP1;P2;durP2;ratioP2
33672;SDS011;20011;51.510;9.942;2023-02-28T00:01:23;3.93;;;1.40;;
33672;SDS011;20011;51.510;9.942;2023-02-28T00:03:51;9.05;;;1.88;;
33672;SDS011;20011;51.510;9.942;2023-02-28T00:06:18;6.05;;;1.60;;
33672;SDS011;20011;51.510;9.942;2023-02-28T00:08:46;2.78;;;1.58;;
33672;SDS011;20011;51.510;9.942;2023-02-28T00:11:14;3.08;;;1.60;;
33672;SDS011;20011;51.510;9.942;2023-02-28T00:13:42;1.80;;;1.10;;
33672;SDS011;20011;51.510;9.942;2023-02-28T00:16:15;3.53;;;1.33;;
33672;SDS011;20011;51.510;9.942;2023-02-28T00:18:44;2.40;;;1.38;;
33672;SDS011;20011;51.510;9.942;2023-02-28T00:21:11;2.13;;;1.52;;
33672;SDS011;20011;51.510;9.942;2023-02-28T00:23:38;1.65;;;1.02;;
33672;SDS011;20011;51.510;9.942;2023-02-28T00:26:06;7.18;;;1.23;;
33672;SDS011;20011;51.510;9.942;2023-02-28T00:28:33;3.80;;;1.17;;
33672;SDS011;20011;51.510;9.942;2023-02-28T00:31:00;1.58;;;0.85;;
33672;SDS011;20011;51.510;9.942;2023-02-28T00:33:28;1.13;;;1.02;;
33672;SDS011;20011;51.510;9.942;2023-02-28T00:36:04;1.38;;;0.85;;
33672;SDS011;20011;51.510;9.942;2023-02-28T00:38:34;3.10;;;1.10;;
33672;SDS011;20011;51.510;9.942;2023-02-28T00:41:02;1.48;;;1.00;;
33672;SDS011;20011;51.510;9.942;2023-02-28T00:43:34;2.55;;;1.42;;
33672;SDS011;20011;51.510;9.942;2023-02-28T00:46:03;2.42;;;1.27;;
33672;SDS011;20011;51.510;9.942;2023-02-28T00:48:30;2.83;;;1.35;;
33672;SDS011;20011;51.510;9.942;2023-02-28T00:50:58;2.40;;;1.13;;
33672;SDS011;20011;51.510;9.942;2023-02-28T00:53:25;2.95;;;1.38;;
33672;SDS011;20011;51.510;9.942;2023-02-28T00:55:52;1.20;;;1.02;;
33672;SDS011;20011;51.510;9.942;2023-02-28T00:58:19;1.42;;;0.93;;
33672;SDS011;20011;51.510;9.942;2023-02-28T01:00:46;2.17;;;1.05;;
33672;SDS011;20011;51.510;9.942;2023-02-28T01:03:16;1.48;;;1.25;;
33672;SDS011;20011;51.510;9.942;2023-02-28T01:05:45;1.83;;;1.08;;
33672;SDS011;20011;51.510;9.942;2023-02-28T01:08:13;1.40;;;1.20;;
33672;SDS011;20011;51.510;9.942;2023-02-28T01:10:40;2.00;;;1.40;;
33672;SDS011;20011;51.510;9.942;2023-02-28T01:13:08;1.17;;;0.75;;
33672;SDS011;20011;51.510;9.942;2023-02-28T01:15:36;1.45;;;1.15;;
33672;SDS011;20011;51.510;9.942;2023-02-28T01:18:03;1.42;;;0.88;;
33672;SDS011;20011;51.510;9.942;2023-02-28T01:20:31;5.13;;;1.13;;
33672;SDS011;20011;51.510;9.942;2023-02-28T01:22:58;3.00;;;1.25;;
33672;SDS011;20011;51.510;9.942;2023-02-28T01:25:26;2.70;;;1.35;;
33672;SDS011;20011;51.510;9.942;2023-02-28T01:27:53;1.35;;;0.98;;
33672;SDS011;20011;51.510;9.942;2023-02-28T01:30:20;2.33;;;0.90;;
33672;SDS011;20011;51.510;9.942;2023-02-28T01:32:47;0.93;;;0.70;;
33672;SDS011;20011;51.510;9.942;2023-02-28T01:35:17;0.60;;;0.60;;
33672;SDS011;20011;51.510;9.942;2023-02-28T01:37:44;2.08;;;1.10;;
33672;SDS011;20011;51.510;9.942;2023-02-28T01:40:12;1.17;;;0.93;;
33672;SDS011;20011;51.510;9.942;2023-02-28T01:42:39;1.55;;;0.85;;
33672;SDS011;20011;51.510;9.942;2023-02-28T01:45:22;3.42;;;1.42;;
33672;SDS011;20011;51.510;9.942;2023-02-28T01:47:50;1.35;;;0.95;;
33672;SDS011;20011;51.510;9.942;2023-02-28T01:50:22;2.28;;;1.38;;
33672;SDS011;20011;51.510;9.942;2023-02-28T01:52:52;7.18;;;2.40;;
33672;SDS011;20011;51.510;9.942;2023-02-28T01:55:23;2.10;;;1.50;;
33672;SDS011;20011;51.510;9.942;2023-02-28T01:57:57;12.90;;;1.42;;
33672;SDS011;20011;51.510;9.942;2023-02-28T02:00:26;1.40;;;1.30;;
33672;SDS011;20011;51.510;9.942;2023-02-28T02:02:59;5.53;;;1.20;;
33672;SDS011;20011;51.510;9.942;2023-02-28T02:05:31;3.28;;;1.90;;
33672;SDS011;20011;51.510;9.942;2023-02-28T02:08:04;5.63;;;1.67;;
33672;SDS011;20011;51.510;9.942;2023-02-28T02:10:41;2.85;;;1.50;;
33672;SDS011;20011;51.510;9.942;2023-02-28T02:13:33;3.25;;;1.58;;
33672;SDS011;20011;51.510;9.942;2023-02-28T02:35:23;1.88;;;1.40;;
33672;SDS011;20011;51.510;9.942;2023-02-28T02:43:32;1.52;;;0.90;;
33672;SDS011;20011;51.510;9.942;2023-02-28T02:46:10;1.38;;;1.08;;
33672;SDS011;20011;51.510;9.942;2023-02-28T02:48:43;1.42;;;1.00;;
33672;SDS011;20011;51.510;9.942;2023-02-28T02:51:16;3.50;;;1.80;;
33672;SDS011;20011;51.510;9.942;2023-02-28T02:53:47;2.53;;;1.52;;
33672;SDS011;20011;51.510;9.942;2023-02-28T02:56:19;3.63;;;1.55;;
33672;SDS011;20011;51.510;9.942;2023-02-28T02:58:50;2.90;;;1.83;;
33672;SDS011;20011;51.510;9.942;2023-02-28T03:01:21;6.47;;;2.13;;
33672;SDS011;20011;51.510;9.942;2023-02-28T03:03:59;4.93;;;1.70;;
33672;SDS011;20011;51.510;9.942;2023-02-28T03:06:29;2.15;;;1.60;;
33672;SDS011;20011;51.510;9.942;2023-02-28T03:08:56;3.03;;;2.10;;
33672;SDS011;20011;51.510;9.942;2023-02-28T03:11:23;6.10;;;3.33;;
33672;SDS011;20011;51.510;9.942;2023-02-28T03:19:45;6.78;;;3.63;;
33672;SDS011;20011;51.510;9.942;2023-02-28T03:25:00;6.82;;;3.40;;
33672;SDS011;20011;51.510;9.942;2023-02-28T03:30:16;7.97;;;4.47;;
33672;SDS011;20011;51.510;9.942;2023-02-28T03:32:58;10.98;;;5.18;;
33672;SDS011;20011;51.510;9.942;2023-02-28T03:35:37;7.97;;;4.63;;
33672;SDS011;20011;51.510;9.942;2023-02-28T03:38:18;4.63;;;3.13;;
33672;SDS011;20011;51.510;9.942;2023-02-28T03:41:09;5.55;;;1.85;;
33672;SDS011;20011;51.510;9.942;2023-02-28T03:43:49;3.53;;;1.23;;
33672;SDS011;20011;51.510;9.942;2023-02-28T03:46:27;3.25;;;1.38;;
33672;SDS011;20011;51.510;9.942;2023-02-28T03:49:00;1.70;;;0.90;;
33672;SDS011;20011;51.510;9.942;2023-02-28T03:51:29;2.10;;;1.48;;
33672;SDS011;20011;51.510;9.942;2023-02-28T03:53:58;2.38;;;1.30;;
33672;SDS011;20011;51.510;9.942;2023-02-28T03:56:33;1.35;;;0.80;;
33672;SDS011;20011;51.510;9.942;2023-02-28T04:01:47;3.72;;;1.58;;
33672;SDS011;20011;51.510;9.942;2023-02-28T04:04:15;3.70;;;1.20;;
33672;SDS011;20011;51.510;9.942;2023-02-28T04:06:43;2.05;;;1.60;;
33672;SDS011;20011;51.510;9.942;2023-02-28T04:09:12;3.55;;;2.10;;
33672;SDS011;20011;51.510;9.942;2023-02-28T04:11:41;5.30;;;2.38;;
33672;SDS011;20011;51.510;9.942;2023-02-28T04:14:11;2.85;;;1.63;;
33672;SDS011;20011;51.510;9.942;2023-02-28T04:16:39;2.55;;;2.15;;
33672;SDS011;20011;51.510;9.942;2023-02-28T04:19:07;5.57;;;2.58;;
33672;SDS011;20011;51.510;9.942;2023-02-28T04:21:37;4.53;;;2.28;;
33672;SDS011;20011;51.510;9.942;2023-02-28T04:24:06;4.82;;;2.17;;
33672;SDS011;20011;51.510;9.942;2023-02-28T04:26:41;4.05;;;1.98;;
33672;SDS011;20011;51.510;9.942;2023-02-28T04:29:10;9.43;;;2.53;;
33672;SDS011;20011;51.510;9.942;2023-02-28T04:31:39;8.38;;;2.40;;
33672;SDS011;20011;51.510;9.942;2023-02-28T04:34:07;4.25;;;1.90;;
33672;SDS011;20011;51.510;9.942;2023-02-28T04:36:34;4.88;;;2.50;;
33672;SDS011;20011;51.510;9.942;2023-02-28T04:39:01;7.38;;;1.75;;
33672;SDS011;20011;51.510;9.942;2023-02-28T04:41:30;6.13;;;1.90;;
33672;SDS011;20011;51.510;9.942;2023-02-28T04:43:58;7.40;;;1.83;;
33672;SDS011;20011;51.510;9.942;2023-02-28T04:46:25;3.58;;;1.58;;
33672;SDS011;20011;51.510;9.942;2023-02-28T04:48:52;2.85;;;1.30;;
33672;SDS011;20011;51.510;9.942;2023-02-28T04:51:20;1.40;;;1.20;;
33672;SDS011;20011;51.510;9.942;2023-02-28T04:53:48;2.67;;;1.50;;
33672;SDS011;20011;51.510;9.942;2023-02-28T04:56:16;4.22;;;1.15;;
33672;SDS011;20011;51.510;9.942;2023-02-28T04:58:43;2.50;;;1.15;;
33672;SDS011;20011;51.510;9.942;2023-02-28T05:03:54;2.05;;;1.20;;
33672;SDS011;20011;51.510;9.942;2023-02-28T05:06:23;1.17;;;1.08;;
33672;SDS011;20011;51.510;9.942;2023-02-28T05:08:52;1.88;;;1.08;;
33672;SDS011;20011;51.510;9.942;2023-02-28T05:11:21;1.73;;;0.90;;
33672;SDS011;20011;51.510;9.942;2023-02-28T05:13:50;3.75;;;1.48;;
33672;SDS011;20011;51.510;9.942;2023-02-28T05:16:18;4.57;;;1.25;;
33672;SDS011;20011;51.510;9.942;2023-02-28T05:18:46;3.42;;;1.35;;
33672;SDS011;20011;51.510;9.942;2023-02-28T05:21:24;2.70;;;1.20;;
33672;SDS011;20011;51.510;9.942;2023-02-28T05:23:55;3.00;;;1.30;;
33672;SDS011;20011;51.510;9.942;2023-02-28T05:26:23;2.33;;;1.10;;
33672;SDS011;20011;51.510;9.942;2023-02-28T05:28:51;2.08;;;1.02;;
33672;SDS011;20011;51.510;9.942;2023-02-28T05:31:18;2.58;;;1.08;;
33672;SDS011;20011;51.510;9.942;2023-02-28T05:33:46;6.40;;;1.20;;
33672;SDS011;20011;51.510;9.942;2023-02-28T05:36:13;1.73;;;1.33;;
33672;SDS011;20011;51.510;9.942;2023-02-28T05:38:41;4.15;;;1.48;;
33672;SDS011;20011;51.510;9.942;2023-02-28T05:41:08;3.28;;;1.30;;
33672;SDS011;20011;51.510;9.942;2023-02-28T05:43:37;1.98;;;1.10;;
33672;SDS011;20011;51.510;9.942;2023-02-28T05:46:05;1.65;;;1.00;;
33672;SDS011;20011;51.510;9.942;2023-02-28T05:51:08;2.25;;;1.33;;
33672;SDS011;20011;51.510;9.942;2023-02-28T05:53:38;4.95;;;1.17;;
33672;SDS011;20011;51.510;9.942;2023-02-28T05:56:09;1.85;;;1.40;;
33672;SDS011;20011;51.510;9.942;2023-02-28T05:58:37;6.22;;;1.20;;
33672;SDS011;20011;51.510;9.942;2023-02-28T06:01:24;2.15;;;1.42;;
33672;SDS011;20011;51.510;9.942;2023-02-28T06:04:06;1.25;;;0.95;;
33672;SDS011;20011;51.510;9.942;2023-02-28T06:06:51;1.98;;;0.93;;
33672;SDS011;20011;51.510;9.942;2023-02-28T06:09:18;2.67;;;1.27;;
33672;SDS011;20011;51.510;9.942;2023-02-28T06:11:45;2.20;;;1.23;;
33672;SDS011;20011;51.510;9.942;2023-02-28T06:14:17;3.53;;;1.50;;
33672;SDS011;20011;51.510;9.942;2023-02-28T06:16:45;2.15;;;1.63;;
33672;SDS011;20011;51.510;9.942;2023-02-28T06:19:14;7.22;;;1.13;;
33672;SDS011;20011;51.510;9.942;2023-02-28T06:21:41;1.52;;;1.25;;
33672;SDS011;20011;51.510;9.942;2023-02-28T06:24:09;2.33;;;1.30;;
33672;SDS011;20011;51.510;9.942;2023-02-28T06:26:36;7.00;;;1.63;;
33672;SDS011;20011;51.510;9.942;2023-02-28T06:29:04;2.63;;;1.30;;
33672;SDS011;20011;51.510;9.942;2023-02-28T06:31:31;2.28;;;1.33;;
33672;SDS011;20011;51.510;9.942;2023-02-28T06:33:59;3.25;;;2.05;;
33672;SDS011;20011;51.510;9.942;2023-02-28T06:36:27;3.33;;;1.48;;
33672;SDS011;20011;51.510;9.942;2023-02-28T06:38:54;2.22;;;1.60;;
33672;SDS011;20011;51.510;9.942;2023-02-28T06:41:23;2.28;;;1.63;;
33672;SDS011;20011;51.510;9.942;2023-02-28T06:43:50;4.55;;;1.48;;
33672;SDS011;20011;51.510;9.942;2023-02-28T06:46:18;2.63;;;1.40;;
33672;SDS011;20011;51.510;9.942;2023-02-28T06:48:45;3.40;;;1.60;;
33672;SDS011;20011;51.510;9.942;2023-02-28T06:51:14;8.48;;;1.60;;
33672;SDS011;20011;51.510;9.942;2023-02-28T06:53:43;7.15;;;1.38;;
33672;SDS011;20011;51.510;9.942;2023-02-28T06:56:11;2.22;;;1.30;;
33672;SDS011;20011;51.510;9.942;2023-02-28T06:58:40;4.03;;;1.95;;
33672;SDS011;20011;51.510;9.942;2023-02-28T07:01:07;2.78;;;1.42;;
33672;SDS011;20011;51.510;9.942;2023-02-28T07:03:35;7.35;;;1.35;;
33672;SDS011;20011;51.510;9.942;2023-02-28T07:06:02;8.63;;;1.50;;
33672;SDS011;20011;51.510;9.942;2023-02-28T07:08:31;6.07;;;2.85;;
33672;SDS011;20011;51.510;9.942;2023-02-28T07:10:59;2.58;;;1.67;;
33672;SDS011;20011;51.510;9.942;2023-02-28T07:13:26;2.03;;;1.23;;
33672;SDS011;20011;51.510;9.942;2023-02-28T07:15:57;4.45;;;1.42;;
33672;SDS011;20011;51.510;9.942;2023-02-28T07:18:24;3.00;;;1.65;;
33672;SDS011;20011;51.510;9.942;2023-02-28T07:23:21;5.50;;;1.25;;
33672;SDS011;20011;51.510;9.942;2023-02-28T07:25:49;2.83;;;1.80;;
33672;SDS011;20011;51.510;9.942;2023-02-28T07:28:17;3.58;;;1.65;;
33672;SDS011;20011;51.510;9.942;2023-02-28T07:30:44;1.75;;;1.25;;
33672;SDS011;20011;51.510;9.942;2023-02-28T07:33:11;3.55;;;1.33;;
33672;SDS011;20011;51.510;9.942;2023-02-28T07:35:39;3.60;;;1.90;;
33672;SDS011;20011;51.510;9.942;2023-02-28T07:38:06;2.80;;;1.33;;
33672;SDS011;20011;51.510;9.942;2023-02-28T07:40:34;5.15;;;1.20;;
33672;SDS011;20011;51.510;9.942;2023-02-28T07:43:01;7.50;;;1.75;;
33672;SDS011;20011;51.510;9.942;2023-02-28T07:45:29;3.67;;;1.58;;
33672;SDS011;20011;51.510;9.942;2023-02-28T07:47:57;3.85;;;1.40;;
33672;SDS011;20011;51.510;9.942;2023-02-28T07:50:25;5.63;;;1.55;;
33672;SDS011;20011;51.510;9.942;2023-02-28T07:52:55;8.82;;;1.67;;
33672;SDS011;20011;51.510;9.942;2023-02-28T07:55:22;2.20;;;1.60;;
33672;SDS011;20011;51.510;9.942;2023-02-28T07:57:50;3.53;;;1.42;;
33672;SDS011;20011;51.510;9.942;2023-02-28T08:00:17;4.72;;;2.28;;
33672;SDS011;20011;51.510;9.942;2023-02-28T08:02:44;2.05;;;1.60;;
33672;SDS011;20011;51.510;9.942;2023-02-28T08:05:12;2.42;;;1.67;;
33672;SDS011;20011;51.510;9.942;2023-02-28T08:07:39;2.78;;;1.50;;
33672;SDS011;20011;51.510;9.942;2023-02-28T08:10:06;2.10;;;1.48;;
33672;SDS011;20011;51.510;9.942;2023-02-28T08:12:36;1.90;;;1.50;;
33672;SDS011;20011;51.510;9.942;2023-02-28T08:15:03;4.55;;;1.77;;
33672;SDS011;20011;51.510;9.942;2023-02-28T08:17:30;3.17;;;1.80;;
33672;SDS011;20011;51.510;9.942;2023-02-28T08:20:00;4.72;;;1.88;;
33672;SDS011;20011;51.510;9.942;2023-02-28T08:22:28;3.90;;;1.95;;
33672;SDS011;20011;51.510;9.942;2023-02-28T08:24:55;7.97;;;2.00;;
33672;SDS011;20011;51.510;9.942;2023-02-28T08:27:22;7.47;;;2.08;;
33672;SDS011;20011;51.510;9.942;2023-02-28T08:29:49;4.75;;;2.15;;
33672;SDS011;20011;51.510;9.942;2023-02-28T08:32:17;2.88;;;1.85;;
33672;SDS011;20011;51.510;9.942;2023-02-28T08:34:55;3.45;;;2.15;;
33672;SDS011;20011;51.510;9.942;2023-02-28T08:37:22;3.50;;;2.08;;
33672;SDS011;20011;51.510;9.942;2023-02-28T08:39:50;5.55;;;2.40;;
33672;SDS011;20011;51.510;9.942;2023-02-28T08:42:21;3.90;;;2.85;;
33672;SDS011;20011;51.510;9.942;2023-02-28T08:44:48;3.70;;;2.28;;
33672;SDS011;20011;51.510;9.942;2023-02-28T08:47:16;8.75;;;3.10;;
33672;SDS011;20011;51.510;9.942;2023-02-28T08:49:43;6.28;;;2.55;;
33672;SDS011;20011;51.510;9.942;2023-02-28T08:52:11;6.78;;;2.92;;
33672;SDS011;20011;51.510;9.942;2023-02-28T08:54:38;2.70;;;2.13;;
33672;SDS011;20011;51.510;9.942;2023-02-28T08:57:06;3.45;;;2.22;;
33672;SDS011;20011;51.510;9.942;2023-02-28T08:59:33;7.30;;;2.58;;
33672;SDS011;20011;51.510;9.942;2023-02-28T09:02:00;6.25;;;2.95;;
33672;SDS011;20011;51.510;9.942;2023-02-28T09:04:27;5.75;;;2.67;;
33672;SDS011;20011;51.510;9.942;2023-02-28T09:06:57;3.53;;;2.57;;
33672;SDS011;20011;51.510;9.942;2023-02-28T09:09:24;6.95;;;2.67;;
33672;SDS011;20011;51.510;9.942;2023-02-28T09:11:51;6.18;;;2.47;;
33672;SDS011;20011;51.510;9.942;2023-02-28T09:14:19;5.82;;;2.33;;
33672;SDS011;20011;51.510;9.942;2023-02-28T09:16:46;3.42;;;2.25;;
33672;SDS011;20011;51.510;9.942;2023-02-28T09:19:14;3.97;;;2.38;;
33672;SDS011;20011;51.510;9.942;2023-02-28T09:21:41;7.68;;;2.20;;
33672;SDS011;20011;51.510;9.942;2023-02-28T09:24:08;4.78;;;2.33;;
33672;SDS011;20011;51.510;9.942;2023-02-28T09:26:37;3.90;;;2.37;;
33672;SDS011;20011;51.510;9.942;2023-02-28T09:29:21;4.90;;;2.60;;
33672;SDS011;20011;51.510;9.942;2023-02-28T09:31:48;3.80;;;2.20;;
33672;SDS011;20011;51.510;9.942;2023-02-28T09:34:16;7.47;;;2.60;;
33672;SDS011;20011;51.510;9.942;2023-02-28T09:36:43;2.63;;;2.25;;
33672;SDS011;20011;51.510;9.942;2023-02-28T09:39:12;5.43;;;2.47;;
33672;SDS011;20011;51.510;9.942;2023-02-28T09:41:42;3.10;;;2.13;;
33672;SDS011;20011;51.510;9.942;2023-02-28T09:44:16;2.67;;;2.20;;
33672;SDS011;20011;51.510;9.942;2023-02-28T09:47:01;5.05;;;2.15;;
33672;SDS011;20011;51.510;9.942;2023-02-28T09:50:03;2.50;;;1.83;;
33672;SDS011;20011;51.510;9.942;2023-02-28T09:52:42;3.83;;;2.50;;
33672;SDS011;20011;51.510;9.942;2023-02-28T09:55:22;4.78;;;2.05;;
33672;SDS011;20011;51.510;9.942;2023-02-28T09:58:54;3.50;;;2.05;;
33672;SDS011;20011;51.510;9.942;2023-02-28T10:01:21;6.97;;;2.80;;
33672;SDS011;20011;51.510;9.942;2023-02-28T10:07:22;3.47;;;2.58;;
33672;SDS011;20011;51.510;9.942;2023-02-28T10:10:13;4.05;;;2.38;;
33672;SDS011;20011;51.510;9.942;2023-02-28T10:12:55;4.15;;;2.97;;
33672;SDS011;20011;51.510;9.942;2023-02-28T10:15:27;2.65;;;2.20;;
33672;SDS011;20011;51.510;9.942;2023-02-28T10:17:58;3.90;;;2.53;;
33672;SDS011;20011;51.510;9.942;2023-02-28T10:20:36;6.18;;;2.58;;
33672;SDS011;20011;51.510;9.942;2023-02-28T10:23:23;3.80;;;2.45;;
33672;SDS011;20011;51.510;9.942;2023-02-28T10:25:57;5.25;;;2.35;;
33672;SDS011;20011;51.510;9.942;2023-02-28T10:28:39;5.68;;;3.13;;
33672;SDS011;20011;51.510;9.942;2023-02-28T10:31:08;5.00;;;2.65;;
33672;SDS011;20011;51.510;9.942;2023-02-28T10:33:43;7.07;;;2.90;;
33672;SDS011;20011;51.510;9.942;2023-02-28T10:36:15;8.75;;;3.70;;
33672;SDS011;20011;51.510;9.942;2023-02-28T10:38:45;3.45;;;2.80;;
33672;SDS011;20011;51.510;9.942;2023-02-28T10:43:41;9.82;;;3.67;;
33672;SDS011;20011;51.510;9.942;2023-02-28T10:46:12;5.95;;;3.05;;
33672;SDS011;20011;51.510;9.942;2023-02-28T10:49:03;5.43;;;3.10;;
33672;SDS011;20011;51.510;9.942;2023-02-28T10:54:05;7.28;;;2.35;;
33672;SDS011;20011;51.510;9.942;2023-02-28T10:56:32;8.30;;;3.47;;
33672;SDS011;20011;51.510;9.942;2023-02-28T10:59:02;6.63;;;3.40;;
33672;SDS011;20011;51.510;9.942;2023-02-28T11:01:49;4.30;;;2.65;;
33672;SDS011;20011;51.510;9.942;2023-02-28T11:06:59;4.97;;;2.67;;
33672;SDS011;20011;51.510;9.942;2023-02-28T11:09:38;4.88;;;2.60;;
33672;SDS011;20011;51.510;9.942;2023-02-28T11:12:07;5.28;;;2.95;;
33672;SDS011;20011;51.510;9.942;2023-02-28T11:14:49;6.65;;;3.15;;
33672;SDS011;20011;51.510;9.942;2023-02-28T11:17:23;6.22;;;3.90;;
33672;SDS011;20011;51.510;9.942;2023-02-28T11:19:55;6.47;;;3.42;;
33672;SDS011;20011;51.510;9.942;2023-02-28T11:22:27;3.78;;;2.97;;
33672;SDS011;20011;51.510;9.942;2023-02-28T11:24:57;6.53;;;3.60;;
33672;SDS011;20011;51.510;9.942;2023-02-28T11:29:58;6.43;;;2.72;;
33672;SDS011;20011;51.510;9.942;2023-02-28T11:32:29;5.65;;;3.15;;
33672;SDS011;20011;51.510;9.942;2023-02-28T11:40:30;5.38;;;2.70;;
33672;SDS011;20011;51.510;9.942;2023-02-28T11:52:01;7.85;;;3.25;;
33672;SDS011;20011;51.510;9.942;2023-02-28T12:03:22;3.75;;;2.70;;
33672;SDS011;20011;51.510;9.942;2023-02-28T12:06:35;5.15;;;2.28;;
33672;SDS011;20011;51.510;9.942;2023-02-28T12:12:16;10.35;;;3.80;;
33672;SDS011;20011;51.510;9.942;2023-02-28T12:15:17;7.65;;;3.30;;
33672;SDS011;20011;51.510;9.942;2023-02-28T12:21:24;5.85;;;2.92;;
33672;SDS011;20011;51.510;9.942;2023-02-28T12:24:10;7.95;;;2.80;;
33672;SDS011;20011;51.510;9.942;2023-02-28T12:27:06;5.05;;;2.53;;
33672;SDS011;20011;51.510;9.942;2023-02-28T12:29:52;5.22;;;2.13;;
33672;SDS011;20011;51.510;9.942;2023-02-28T12:32:45;8.90;;;2.63;;
33672;SDS011;20011;51.510;9.942;2023-02-28T12:43:22;4.90;;;3.00;;
33672;SDS011;20011;51.510;9.942;2023-02-28T12:45:56;5.38;;;2.67;;
33672;SDS011;20011;51.510;9.942;2023-02-28T12:48:31;6.20;;;2.83;;
33672;SDS011;20011;51.510;9.942;2023-02-28T12:51:32;4.57;;;2.63;;
33672;SDS011;20011;51.510;9.942;2023-02-28T12:59:52;6.53;;;2.88;;
33672;SDS011;20011;51.510;9.942;2023-02-28T13:02:28;5.93;;;2.65;;
33672;SDS011;20011;51.510;9.942;2023-02-28T13:05:44;4.72;;;2.47;;
33672;SDS011;20011;51.510;9.942;2023-02-28T13:08:38;4.82;;;3.30;;
33672;SDS011;20011;51.510;9.942;2023-02-28T13:14:02;6.38;;;3.03;;
33672;SDS011;20011;51.510;9.942;2023-02-28T13:19:22;6.47;;;2.50;;
33672;SDS011;20011;51.510;9.942;2023-02-28T13:21:51;5.20;;;2.85;;
33672;SDS011;20011;51.510;9.942;2023-02-28T13:24:39;5.72;;;2.70;;
33672;SDS011;20011;51.510;9.942;2023-02-28T13:27:11;4.10;;;2.67;;
33672;SDS011;20011;51.510;9.942;2023-02-28T13:29:52;5.40;;;2.97;;
33672;SDS011;20011;51.510;9.942;2023-02-28T13:32:28;4.80;;;3.22;;
33672;SDS011;20011;51.510;9.942;2023-02-28T13:40:14;4.82;;;3.00;;
33672;SDS011;20011;51.510;9.942;2023-02-28T13:42:53;6.57;;;3.08;;
33672;SDS011;20011;51.510;9.942;2023-02-28T13:45:22;3.63;;;2.47;;
33672;SDS011;20011;51.510;9.942;2023-02-28T13:48:00;4.65;;;2.90;;
33672;SDS011;20011;51.510;9.942;2023-02-28T13:50:31;2.78;;;2.33;;
33672;SDS011;20011;51.510;9.942;2023-02-28T13:58:49;4.03;;;2.30;;
33672;SDS011;20011;51.510;9.942;2023-02-28T14:07:08;3.83;;;2.50;;
33672;SDS011;20011;51.510;9.942;2023-02-28T14:16:55;8.50;;;2.85;;
33672;SDS011;20011;51.510;9.942;2023-02-28T14:19:54;5.70;;;3.15;;
33672;SDS011;20011;51.510;9.942;2023-02-28T14:28:04;6.28;;;3.42;;
33672;SDS011;20011;51.510;9.942;2023-02-28T14:30:59;7.95;;;3.40;;
33672;SDS011;20011;51.510;9.942;2023-02-28T14:33:57;5.80;;;3.50;;
33672;SDS011;20011;51.510;9.942;2023-02-28T14:36:39;4.00;;;3.05;;
33672;SDS011;20011;51.510;9.942;2023-02-28T14:39:11;8.38;;;3.00;;
33672;SDS011;20011;51.510;9.942;2023-02-28T14:41:42;3.90;;;2.45;;
33672;SDS011;20011;51.510;9.942;2023-02-28T14:46:49;7.30;;;3.22;;
33672;SDS011;20011;51.510;9.942;2023-02-28T14:49:32;8.95;;;3.70;;
33672;SDS011;20011;51.510;9.942;2023-02-28T14:52:47;6.22;;;3.42;;
33672;SDS011;20011;51.510;9.942;2023-02-28T14:58:51;7.50;;;3.55;;
33672;SDS011;20011;51.510;9.942;2023-02-28T15:01:21;7.00;;;4.03;;
33672;SDS011;20011;51.510;9.942;2023-02-28T15:03:56;5.40;;;3.08;;
33672;SDS011;20011;51.510;9.942;2023-02-28T15:06:25;6.00;;;3.35;;
33672;SDS011;20011;51.510;9.942;2023-02-28T15:09:10;6.03;;;3.60;;
33672;SDS011;20011;51.510;9.942;2023-02-28T15:11:41;6.25;;;3.58;;
33672;SDS011;20011;51.510;9.942;2023-02-28T15:14:13;5.13;;;3.25;;
33672;SDS011;20011;51.510;9.942;2023-02-28T15:16:43;4.65;;;3.17;;
33672;SDS011;20011;51.510;9.942;2023-02-28T15:19:26;4.82;;;3.42;;
33672;SDS011;20011;51.510;9.942;2023-02-28T15:21:58;6.95;;;4.13;;
33672;SDS011;20011;51.510;9.942;2023-02-28T15:24:43;5.80;;;3.42;;
33672;SDS011;20011;51.510;9.942;2023-02-28T15:27:15;10.57;;;3.95;;
33672;SDS011;20011;51.510;9.942;2023-02-28T15:29:48;8.85;;;4.03;;
33672;SDS011;20011;51.510;9.942;2023-02-28T15:34:54;5.45;;;3.50;;
33672;SDS011;20011;51.510;9.942;2023-02-28T15:39:56;8.27;;;4.53;;
33672;SDS011;20011;51.510;9.942;2023-02-28T15:45:33;7.13;;;4.28;;
33672;SDS011;20011;51.510;9.942;2023-02-28T15:48:21;11.65;;;5.07;;
33672;SDS011;20011;51.510;9.942;2023-02-28T15:50:54;10.20;;;4.95;;
33672;SDS011;20011;51.510;9.942;2023-02-28T15:56:24;9.45;;;4.10;;
33672;SDS011;20011;51.510;9.942;2023-02-28T15:58:55;8.10;;;4.57;;
33672;SDS011;20011;51.510;9.942;2023-02-28T16:01:42;11.27;;;4.68;;
33672;SDS011;20011;51.510;9.942;2023-02-28T16:04:17;6.97;;;4.38;;
33672;SDS011;20011;51.510;9.942;2023-02-28T16:09:14;10.77;;;5.15;;
33672;SDS011;20011;51.510;9.942;2023-02-28T16:11:48;7.28;;;4.47;;
33672;SDS011;20011;51.510;9.942;2023-02-28T16:14:20;14.65;;;4.18;;
33672;SDS011;20011;51.510;9.942;2023-02-28T16:16:50;7.65;;;3.88;;
33672;SDS011;20011;51.510;9.942;2023-02-28T16:19:19;6.78;;;4.28;;
33672;SDS011;20011;51.510;9.942;2023-02-28T16:21:47;7.63;;;3.75;;
33672;SDS011;20011;51.510;9.942;2023-02-28T16:24:14;5.15;;;3.92;;
33672;SDS011;20011;51.510;9.942;2023-02-28T16:26:42;7.55;;;4.20;;
33672;SDS011;20011;51.510;9.942;2023-02-28T16:29:16;8.10;;;4.63;;
33672;SDS011;20011;51.510;9.942;2023-02-28T16:31:57;11.25;;;6.13;;
33672;SDS011;20011;51.510;9.942;2023-02-28T16:34:25;12.05;;;6.35;;
33672;SDS011;20011;51.510;9.942;2023-02-28T16:36:52;18.35;;;7.07;;
33672;SDS011;20011;51.510;9.942;2023-02-28T16:39:20;16.33;;;7.40;;
33672;SDS011;20011;51.510;9.942;2023-02-28T16:41:47;9.40;;;5.28;;
33672;SDS011;20011;51.510;9.942;2023-02-28T16:44:28;6.85;;;4.22;;
33672;SDS011;20011;51.510;9.942;2023-02-28T16:46:59;6.95;;;4.50;;
33672;SDS011;20011;51.510;9.942;2023-02-28T16:49:27;8.00;;;4.80;;
33672;SDS011;20011;51.510;9.942;2023-02-28T16:51:55;7.20;;;4.18;;
33672;SDS011;20011;51.510;9.942;2023-02-28T16:54:23;6.47;;;4.15;;
33672;SDS011;20011;51.510;9.942;2023-02-28T16:56:54;6.82;;;4.35;;
33672;SDS011;20011;51.510;9.942;2023-02-28T17:01:54;10.02;;;5.45;;
33672;SDS011;20011;51.510;9.942;2023-02-28T17:04:24;11.65;;;6.22;;
33672;SDS011;20011;51.510;9.942;2023-02-28T17:07:01;8.85;;;5.55;;
33672;SDS011;20011;51.510;9.942;2023-02-28T17:12:08;9.35;;;5.03;;
33672;SDS011;20011;51.510;9.942;2023-02-28T17:14:37;12.75;;;4.65;;
33672;SDS011;20011;51.510;9.942;2023-02-28T17:17:05;10.02;;;4.60;;
33672;SDS011;20011;51.510;9.942;2023-02-28T17:19:33;11.40;;;4.90;;
33672;SDS011;20011;51.510;9.942;2023-02-28T17:22:02;7.77;;;5.10;;
33672;SDS011;20011;51.510;9.942;2023-02-28T17:24:29;8.15;;;4.55;;
33672;SDS011;20011;51.510;9.942;2023-02-28T17:26:58;9.02;;;4.88;;
33672;SDS011;20011;51.510;9.942;2023-02-28T17:29:27;7.13;;;4.80;;
33672;SDS011;20011;51.510;9.942;2023-02-28T17:32:03;8.93;;;5.03;;
33672;SDS011;20011;51.510;9.942;2023-02-28T17:34:43;8.43;;;4.72;;
33672;SDS011;20011;51.510;9.942;2023-02-28T17:37:12;11.75;;;5.55;;
33672;SDS011;20011;51.510;9.942;2023-02-28T17:39:42;8.73;;;4.85;;
33672;SDS011;20011;51.510;9.942;2023-02-28T17:42:15;10.25;;;5.53;;
33672;SDS011;20011;51.510;9.942;2023-02-28T17:44:46;7.50;;;4.85;;
33672;SDS011;20011;51.510;9.942;2023-02-28T17:47:13;8.77;;;4.97;;
33672;SDS011;20011;51.510;9.942;2023-02-28T17:49:44;8.25;;;4.75;;
33672;SDS011;20011;51.510;9.942;2023-02-28T17:52:11;8.88;;;5.03;;
33672;SDS011;20011;51.510;9.942;2023-02-28T17:54:40;7.28;;;4.30;;
33672;SDS011;20011;51.510;9.942;2023-02-28T17:57:13;6.82;;;4.75;;
33672;SDS011;20011;51.510;9.942;2023-02-28T18:02:11;7.70;;;5.07;;
33672;SDS011;20011;51.510;9.942;2023-02-28T18:04:39;9.45;;;5.78;;